Algowood — VCTD — position and weather

sailwx.info

Track history (hours):
 
Tides and Currents Weather Stations Pressure Air Temp Water Temp Dewpoint Dewpoint Depression Visibility Wind Speed Wind Dir Waves Ship Positions

Algowood

Last reported at 2014-Dec-20 01:24 UTC. Time now 2014-Dec-20 16:32 UTC.
Position N 42°34' W 079°45'.

Length 223 m; draft 8.1 m.

Type: Cargo ship. MMSI: 316001802.

Date/timePositionNaut miles runAvg speedWind from/ knotsBaromVisibWave heightAir tempDewpointWater temp
2014-Dec-20 01:24N 42°34' W 079°45'1011.5
2014-Dec-20 00:33N 42°28' W 079°56'1211.3
2014-Dec-19 23:28N 42°23' W 080°11'  
2014-Dec-14 17:33N 46°28' W 084°33'13 4.4
2014-Dec-14 14:33N 46°25' W 084°15'11 7.9
2014-Dec-14 13:07N 46°15' W 084°06'5 7.8
2014-Dec-14 12:27N 46°10' W 084°05'3110.3
2014-Dec-14 09:27N 45°44' W 083°41'1111.2
2014-Dec-14 08:27N 45°35' W 083°32'1211.1
2014-Dec-14 07:22N 45°25' W 083°22'1011.2
2014-Dec-14 06:31N 45°17' W 083°14'214 4.4
2014-Dec-12 06:23N 42°27' W 080°14'910.7
2014-Dec-12 05:34N 42°30' W 080°03'1110.9
2014-Dec-12 04:34N 42°36' W 079°50'168 4.9
2014-Dec-10 18:29N 44°00' W 076°31'1 1.3
2014-Dec-10 17:34N 44°01' W 076°29'2322.7
2014-Dec-10 16:34N 44°15' W 076°05'0 0.0
2014-Dec-10 15:34N 44°15' W 076°05'  
Track history (hours):
 
Tides and Currents Weather Stations Pressure Air Temp Water Temp Dewpoint Dewpoint Depression Visibility Wind Speed Wind Dir Waves Ship Positions

Algowood

Last reported at 2014-Dec-20 01:24 UTC. Time now 2014-Dec-20 16:32 UTC.
Position N 42°34' W 079°45'.

Length 223 m; draft 8.1 m.

Type: Cargo ship. MMSI: 316001802.

Date/timePositionNaut miles runAvg speedWind from/ knotsBaromVisibWave heightAir tempDewpointWater temp
2014-Dec-20 01:24N 42°34' W 079°45'1011.5
2014-Dec-20 00:33N 42°28' W 079°56'1211.3
2014-Dec-19 23:28N 42°23' W 080°11'  
2014-Dec-14 17:33N 46°28' W 084°33'13 4.4
2014-Dec-14 14:33N 46°25' W 084°15'11 7.9
2014-Dec-14 13:07N 46°15' W 084°06'5 7.8
2014-Dec-14 12:27N 46°10' W 084°05'3110.3
2014-Dec-14 09:27N 45°44' W 083°41'1111.2
2014-Dec-14 08:27N 45°35' W 083°32'1211.1
2014-Dec-14 07:22N 45°25' W 083°22'1011.2
2014-Dec-14 06:31N 45°17' W 083°14'214 4.4
2014-Dec-12 06:23N 42°27' W 080°14'910.7
2014-Dec-12 05:34N 42°30' W 080°03'1110.9
2014-Dec-12 04:34N 42°36' W 079°50'168 4.9
2014-Dec-10 18:29N 44°00' W 076°31'1 1.3
2014-Dec-10 17:34N 44°01' W 076°29'2322.7
2014-Dec-10 16:34N 44°15' W 076°05'0 0.0
2014-Dec-10 15:34N 44°15' W 076°05'  

Dump ship's entire track history